Time;durP1;ratioP1;P1;durP2;ratioP2;P2;SDS_P1;SDS_P2;PMS_P1;PMS_P2;Temp;Humidity;BMP_temperature;BMP_pressure;BME280_temperature;BME280_humidity;BME280_pressure;Samples;Min_cycle;Max_cycle;Signal;HPM_P1;HPM_P2
2024/04/16 00:00:48;;;;;;;4.10;0.80;;;7.20;99.90;;;;;;5369303;26;20008;-61
2024/04/16 00:03:15;;;;;;;2.28;0.85;;;7.20;99.90;;;;;;5336453;26;20008;-63
2024/04/16 00:05:42;;;;;;;1.90;0.65;;;7.00;99.90;;;;;;5361409;26;20016;-62
2024/04/16 00:08:09;;;;;;;3.35;0.60;;;7.20;99.90;;;;;;5361192;26;20011;-62
2024/04/16 00:10:36;;;;;;;1.13;0.50;;;7.20;99.90;;;;;;5364663;26;20082;-63
2024/04/16 00:13:04;;;;;;;1.85;0.60;;;7.30;99.90;;;;;;5369201;26;20012;-63
2024/04/16 00:15:31;;;;;;;2.95;0.65;;;7.30;99.90;;;;;;5364694;26;20531;-63
2024/04/16 00:17:57;;;;;;;4.45;0.60;;;7.50;99.90;;;;;;5345775;26;20015;-63
2024/04/16 00:20:24;;;;;;;3.80;0.68;;;7.50;99.90;;;;;;5358309;26;20004;-63
2024/04/16 00:22:51;;;;;;;0.88;0.75;;;7.40;99.90;;;;;;5355439;26;20000;-63
2024/04/16 00:25:18;;;;;;;1.38;0.60;;;7.40;99.90;;;;;;5354806;26;20013;-63
2024/04/16 00:27:45;;;;;;;3.00;0.80;;;7.50;99.90;;;;;;5365578;26;20020;-63
2024/04/16 00:30:12;;;;;;;2.92;0.80;;;7.50;99.90;;;;;;5366830;26;20000;-62
2024/04/16 00:32:39;;;;;;;3.70;0.70;;;7.60;99.90;;;;;;5367118;26;20456;-62
2024/04/16 00:35:06;;;;;;;1.95;0.70;;;7.60;99.90;;;;;;5370323;26;20456;-62
2024/04/16 00:37:33;;;;;;;2.75;0.60;;;7.60;99.90;;;;;;5375038;26;20413;-63
2024/04/16 00:40:00;;;;;;;2.42;0.60;;;7.80;99.90;;;;;;5367286;26;20078;-63
2024/04/16 00:42:27;;;;;;;1.40;0.80;;;7.80;99.90;;;;;;5363721;26;20757;-62
2024/04/16 00:44:53;;;;;;;3.15;0.60;;;7.80;99.90;;;;;;5376021;26;20004;-62
2024/04/16 00:47:20;;;;;;;2.40;0.90;;;7.70;99.90;;;;;;5373645;26;20016;-63
2024/04/16 00:49:48;;;;;;;1.58;0.70;;;7.70;99.90;;;;;;5364933;26;21707;-63
2024/04/16 00:52:20;;;;;;;2.13;0.73;;;7.70;99.90;;;;;;5363699;26;20021;-63
2024/04/16 00:54:48;;;;;;;4.15;0.70;;;7.70;99.90;;;;;;5368680;26;20453;-61
2024/04/16 00:57:16;;;;;;;2.05;0.70;;;7.60;99.90;;;;;;5374577;26;20349;-62
2024/04/16 00:59:45;;;;;;;5.43;0.90;;;7.60;99.90;;;;;;5372802;26;20004;-62
2024/04/16 01:02:12;;;;;;;5.90;1.33;;;7.40;99.90;;;;;;5368481;26;20000;-62
2024/04/16 01:04:38;;;;;;;6.05;1.15;;;7.20;99.90;;;;;;5366844;26;20016;-62
2024/04/16 01:07:06;;;;;;;3.95;1.10;;;7.10;99.90;;;;;;5355465;26;20362;-62
2024/04/16 01:09:32;;;;;;;2.83;1.05;;;7.00;99.90;;;;;;5369579;26;20584;-63
2024/04/16 01:12:00;;;;;;;10.13;1.80;;;7.10;99.90;;;;;;5362706;26;20001;-62
2024/04/16 01:14:26;;;;;;;6.28;1.40;;;7.10;99.90;;;;;;5369094;26;20033;-62
2024/04/16 01:16:54;;;;;;;9.82;1.30;;;7.00;99.90;;;;;;5368688;26;20005;-62
2024/04/16 01:19:23;;;;;;;5.07;1.10;;;6.90;99.90;;;;;;5360036;26;20015;-63
2024/04/16 01:21:50;;;;;;;4.38;1.00;;;6.90;99.90;;;;;;5367123;26;20019;-62
2024/04/16 01:24:17;;;;;;;7.47;1.40;;;6.90;99.90;;;;;;5371607;26;20011;-62
2024/04/16 01:26:44;;;;;;;10.85;1.63;;;6.80;99.90;;;;;;5371981;26;20015;-62
2024/04/16 01:29:11;;;;;;;13.95;1.80;;;6.80;99.90;;;;;;5370588;26;19996;-62
2024/04/16 01:31:38;;;;;;;6.47;1.58;;;6.80;99.90;;;;;;5365360;26;20001;-62
2024/04/16 01:34:04;;;;;;;6.20;1.63;;;6.90;99.90;;;;;;5371359;26;20022;-62
2024/04/16 01:36:31;;;;;;;4.43;1.30;;;6.80;99.90;;;;;;5370840;26;20016;-61
2024/04/16 01:38:58;;;;;;;6.45;1.60;;;6.80;99.90;;;;;;5339268;26;20073;-62
2024/04/16 01:41:25;;;;;;;5.55;0.95;;;6.70;99.90;;;;;;5365576;26;20009;-61
2024/04/16 01:43:52;;;;;;;7.45;1.40;;;6.70;99.90;;;;;;5371389;26;20015;-62
2024/04/16 01:46:19;;;;;;;7.88;1.40;;;6.80;99.90;;;;;;5366412;26;20017;-62
2024/04/16 01:48:46;;;;;;;5.15;1.10;;;6.80;99.90;;;;;;5372939;26;20008;-63
2024/04/16 01:51:13;;;;;;;8.52;1.30;;;6.80;99.90;;;;;;5366056;26;20015;-63
2024/04/16 01:53:39;;;;;;;7.28;1.60;;;6.80;99.90;;;;;;5370311;26;20001;-62
2024/04/16 01:56:06;;;;;;;7.82;1.50;;;6.80;99.90;;;;;;5373186;26;20000;-63
2024/04/16 01:58:33;;;;;;;6.70;1.48;;;6.90;99.90;;;;;;5367206;26;20454;-63
2024/04/16 02:01:00;;;;;;;5.82;1.52;;;7.00;99.90;;;;;;5369848;26;20005;-61
2024/04/16 02:03:27;;;;;;;8.40;1.48;;;7.00;99.90;;;;;;5364633;26;20012;-63
2024/04/16 02:05:58;;;;;;;7.57;1.70;;;6.90;99.90;;;;;;5369171;26;20016;-63
2024/04/16 02:08:25;;;;;;;11.23;1.67;;;6.80;99.90;;;;;;5366245;26;20511;-63
2024/04/16 02:10:54;;;;;;;5.40;1.80;;;6.80;99.90;;;;;;5371828;26;20004;-63
2024/04/16 02:13:21;;;;;;;6.13;1.65;;;6.80;99.90;;;;;;5370461;26;20000;-62
2024/04/16 02:15:48;;;;;;;7.95;2.15;;;6.90;99.90;;;;;;5368988;26;21295;-63
2024/04/16 02:18:15;;;;;;;6.88;1.48;;;6.90;99.90;;;;;;5364852;26;20019;-62
2024/04/16 02:20:42;;;;;;;7.38;1.65;;;6.80;99.90;;;;;;5361567;26;20015;-63
2024/04/16 02:23:10;;;;;;;7.75;1.60;;;6.80;99.90;;;;;;5370153;26;19997;-62
2024/04/16 02:25:36;;;;;;;7.10;1.63;;;6.80;99.90;;;;;;5369663;26;20344;-63
2024/04/16 02:28:03;;;;;;;7.25;1.45;;;6.70;99.90;;;;;;5363352;26;20000;-63
2024/04/16 02:30:31;;;;;;;6.32;1.73;;;6.70;99.90;;;;;;5370254;26;20469;-63
2024/04/16 02:32:58;;;;;;;7.40;1.70;;;6.80;99.90;;;;;;5374521;26;20016;-62
2024/04/16 02:35:25;;;;;;;6.93;2.08;;;6.90;99.90;;;;;;5365617;26;20634;-63
2024/04/16 02:37:52;;;;;;;10.93;2.28;;;6.90;99.90;;;;;;5371695;26;20004;-63
2024/04/16 02:40:19;;;;;;;8.35;1.73;;;6.90;99.90;;;;;;5365769;26;20001;-62
2024/04/16 02:42:46;;;;;;;9.13;1.80;;;7.00;99.90;;;;;;5368098;26;20012;-63
2024/04/16 02:45:12;;;;;;;8.48;1.75;;;6.90;99.90;;;;;;5369797;26;20001;-63
2024/04/16 02:47:39;;;;;;;7.55;2.00;;;7.00;99.90;;;;;;5357849;26;20070;-63
2024/04/16 02:50:07;;;;;;;10.82;2.30;;;7.10;99.90;;;;;;5363637;26;20008;-62
2024/04/16 02:52:36;;;;;;;9.13;2.40;;;7.10;99.90;;;;;;5366455;26;20000;-63
2024/04/16 02:55:04;;;;;;;9.90;1.67;;;7.10;99.90;;;;;;5357973;26;20056;-63
2024/04/16 02:57:31;;;;;;;9.30;2.00;;;7.10;99.90;;;;;;5339646;26;20419;-63
2024/04/16 02:59:58;;;;;;;9.70;1.55;;;7.00;99.90;;;;;;5341809;26;20538;-63
2024/04/16 03:02:25;;;;;;;8.50;1.80;;;7.10;99.90;;;;;;5372697;26;20074;-63
2024/04/16 03:04:52;;;;;;;9.40;1.65;;;7.10;99.90;;;;;;5367375;26;20001;-63
2024/04/16 03:07:18;;;;;;;11.43;1.88;;;7.10;99.90;;;;;;5361408;26;20004;-63
2024/04/16 03:09:45;;;;;;;17.27;2.40;;;7.10;99.90;;;;;;5369139;26;20069;-64
2024/04/16 03:12:13;;;;;;;11.45;2.15;;;7.00;99.90;;;;;;5334787;26;20001;-64
2024/04/16 03:14:40;;;;;;;10.05;2.63;;;7.20;99.90;;;;;;5368635;26;20015;-64
2024/04/16 03:17:07;;;;;;;12.98;1.83;;;7.20;99.90;;;;;;5361254;26;20008;-64
2024/04/16 03:19:33;;;;;;;11.70;1.60;;;7.20;99.90;;;;;;5367145;26;20007;-64
2024/04/16 03:22:00;;;;;;;13.15;2.15;;;7.20;99.90;;;;;;5361142;26;20001;-63
2024/04/16 03:24:27;;;;;;;10.23;1.98;;;7.20;99.90;;;;;;5364207;26;20001;-63
2024/04/16 03:26:55;;;;;;;15.50;2.20;;;7.10;99.90;;;;;;5365651;26;20036;-62
2024/04/16 03:29:21;;;;;;;12.63;2.00;;;7.10;99.90;;;;;;5365056;26;20591;-63
2024/04/16 03:31:48;;;;;;;13.32;2.25;;;7.20;99.90;;;;;;5363401;26;20383;-64
2024/04/16 03:34:15;;;;;;;15.23;2.40;;;7.30;99.90;;;;;;5362893;26;20001;-64
2024/04/16 03:36:42;;;;;;;11.00;2.72;;;7.20;99.90;;;;;;5358901;26;20377;-64
2024/04/16 03:39:09;;;;;;;11.40;2.17;;;7.10;99.90;;;;;;5372892;26;20002;-64
2024/04/16 03:41:37;;;;;;;12.23;2.17;;;7.10;99.90;;;;;;5365926;26;20344;-63
2024/04/16 03:44:04;;;;;;;13.32;1.98;;;6.90;99.90;;;;;;5352587;26;20013;-62
2024/04/16 03:46:31;;;;;;;11.80;2.60;;;6.70;99.90;;;;;;5363719;26;20004;-63
2024/04/16 03:48:57;;;;;;;11.85;2.13;;;6.50;99.90;;;;;;5360847;26;20020;-61
2024/04/16 03:51:24;;;;;;;8.88;3.05;;;6.40;99.90;;;;;;5359846;26;20015;-61
2024/04/16 03:53:51;;;;;;;13.35;2.10;;;6.30;99.90;;;;;;5363253;26;19997;-63
2024/04/16 03:56:18;;;;;;;18.23;2.42;;;6.20;99.90;;;;;;5361762;26;20452;-63
2024/04/16 03:59:04;;;;;;;12.10;2.63;;;6.20;99.90;;;;;;5345033;26;20001;-62
2024/04/16 04:01:31;;;;;;;9.20;2.67;;;6.10;99.90;;;;;;5357782;26;20013;-63
2024/04/16 04:03:58;;;;;;;13.30;2.30;;;6.10;99.90;;;;;;5369827;26;20076;-62
2024/04/16 04:06:26;;;;;;;11.55;2.28;;;6.10;99.90;;;;;;5363864;26;20023;-63
2024/04/16 04:08:52;;;;;;;11.98;2.90;;;6.10;99.90;;;;;;5367844;26;20000;-64
2024/04/16 04:11:19;;;;;;;13.85;4.07;;;6.10;99.90;;;;;;5367857;26;20000;-64
2024/04/16 04:13:46;;;;;;;11.63;3.35;;;6.20;99.90;;;;;;5362823;26;20317;-64
2024/04/16 04:16:14;;;;;;;14.43;4.13;;;6.20;99.90;;;;;;5365387;26;20769;-64
2024/04/16 04:18:41;;;;;;;12.25;2.25;;;6.30;99.90;;;;;;5367371;26;20490;-63
2024/04/16 04:21:07;;;;;;;10.90;2.20;;;6.30;99.90;;;;;;5363149;26;20007;-64
2024/04/16 04:23:34;;;;;;;15.40;2.47;;;6.30;99.90;;;;;;5369898;26;20456;-63
2024/04/16 04:26:01;;;;;;;7.53;1.75;;;6.40;99.90;;;;;;5369679;26;20390;-64
2024/04/16 04:28:28;;;;;;;9.18;2.05;;;6.40;99.90;;;;;;5370170;26;20075;-64
2024/04/16 04:30:55;;;;;;;11.98;2.15;;;6.60;99.90;;;;;;5367256;26;20093;-64
2024/04/16 04:33:24;;;;;;;10.52;2.42;;;6.60;99.90;;;;;;5365620;26;20016;-62
2024/04/16 04:35:51;;;;;;;16.50;2.60;;;6.70;99.90;;;;;;5367574;26;20004;-64
2024/04/16 04:38:18;;;;;;;13.35;2.42;;;6.70;99.90;;;;;;5363598;26;20015;-64
2024/04/16 04:40:44;;;;;;;18.33;2.78;;;6.70;99.90;;;;;;5338831;26;20001;-64
2024/04/16 04:43:11;;;;;;;7.82;2.00;;;6.70;99.90;;;;;;5360828;26;20650;-64
2024/04/16 04:45:38;;;;;;;8.57;2.08;;;6.70;99.90;;;;;;5367232;26;20328;-64
2024/04/16 04:48:05;;;;;;;9.38;1.95;;;6.60;99.90;;;;;;5368557;26;20586;-64
2024/04/16 04:50:32;;;;;;;10.85;2.17;;;6.70;99.90;;;;;;5361884;26;20072;-64
2024/04/16 04:53:00;;;;;;;10.68;2.35;;;6.60;99.90;;;;;;5366330;26;20574;-63
2024/04/16 04:55:27;;;;;;;10.00;3.05;;;6.60;99.90;;;;;;5367519;26;20006;-63
2024/04/16 04:57:56;;;;;;;10.30;2.13;;;6.60;99.90;;;;;;5367102;26;20399;-64
2024/04/16 05:00:23;;;;;;;11.88;2.15;;;6.50;99.90;;;;;;5372845;26;20339;-63
2024/04/16 05:02:50;;;;;;;10.55;2.05;;;6.40;99.90;;;;;;5361490;26;20001;-63
2024/04/16 05:05:18;;;;;;;16.30;2.80;;;6.40;99.90;;;;;;5360748;26;20012;-62
2024/04/16 05:07:45;;;;;;;14.70;3.45;;;6.50;99.90;;;;;;5364685;26;20000;-63
2024/04/16 05:10:11;;;;;;;11.27;2.20;;;6.40;99.90;;;;;;5364583;26;20435;-63
2024/04/16 05:12:38;;;;;;;12.68;3.00;;;6.40;99.90;;;;;;5362888;26;20085;-63
2024/04/16 05:15:05;;;;;;;10.45;2.63;;;6.40;99.90;;;;;;5362752;26;20001;-62
2024/04/16 05:17:32;;;;;;;13.80;2.50;;;6.50;99.90;;;;;;5368491;26;20395;-63
2024/04/16 05:19:59;;;;;;;12.82;2.30;;;6.50;99.90;;;;;;5373274;26;20008;-62
2024/04/16 05:22:26;;;;;;;12.15;2.15;;;6.50;99.90;;;;;;5370292;26;20000;-63
2024/04/16 05:24:53;;;;;;;16.42;2.72;;;6.50;99.90;;;;;;5374436;26;20456;-63
2024/04/16 05:27:19;;;;;;;7.57;2.15;;;6.50;99.90;;;;;;5369508;26;19997;-63
2024/04/16 05:29:46;;;;;;;14.60;2.33;;;6.50;99.90;;;;;;5372177;26;20004;-63
2024/04/16 05:32:14;;;;;;;15.48;2.75;;;6.50;99.90;;;;;;5357595;26;20000;-63
2024/04/16 05:34:41;;;;;;;15.23;2.30;;;6.60;99.90;;;;;;5373152;26;20040;-63
2024/04/16 05:37:08;;;;;;;11.75;2.50;;;6.70;99.90;;;;;;5369988;26;20004;-63
2024/04/16 05:39:35;;;;;;;14.55;2.55;;;6.70;99.90;;;;;;5357602;26;20000;-62
2024/04/16 05:42:02;;;;;;;10.65;2.20;;;6.80;99.90;;;;;;5361202;26;20007;-62
2024/04/16 05:44:29;;;;;;;9.95;1.92;;;6.80;99.90;;;;;;5361636;26;20000;-62
2024/04/16 05:46:55;;;;;;;11.40;2.08;;;6.80;99.90;;;;;;5358447;26;20016;-62
2024/04/16 05:49:23;;;;;;;8.98;1.80;;;6.70;99.90;;;;;;5368131;26;20044;-63
2024/04/16 05:51:50;;;;;;;11.73;2.22;;;6.70;99.90;;;;;;5371859;26;20822;-63
2024/04/16 05:54:16;;;;;;;12.40;2.58;;;6.70;99.90;;;;;;5354312;26;20001;-63
2024/04/16 05:56:43;;;;;;;16.17;2.40;;;6.70;99.90;;;;;;5370938;26;20000;-63
2024/04/16 05:59:10;;;;;;;8.55;2.33;;;6.70;99.90;;;;;;5368083;26;20001;-63
2024/04/16 06:01:37;;;;;;;10.95;2.40;;;6.70;99.90;;;;;;5365212;26;20000;-63
2024/04/16 06:04:04;;;;;;;12.68;2.45;;;6.80;99.90;;;;;;5368366;26;20001;-63
2024/04/16 06:06:31;;;;;;;10.27;1.98;;;6.90;99.90;;;;;;5361515;26;20012;-62
2024/04/16 06:08:58;;;;;;;11.25;2.40;;;6.80;99.90;;;;;;5360867;26;20000;-63
2024/04/16 06:11:25;;;;;;;9.90;1.92;;;6.90;99.90;;;;;;5369140;26;20004;-62
2024/04/16 06:13:52;;;;;;;14.65;2.03;;;7.00;99.90;;;;;;5371885;26;20506;-62
2024/04/16 06:16:19;;;;;;;14.27;2.22;;;6.90;99.90;;;;;;5363807;26;20012;-63
2024/04/16 06:18:46;;;;;;;11.05;2.10;;;7.10;99.90;;;;;;5361116;26;20000;-61
2024/04/16 06:21:13;;;;;;;13.00;2.03;;;7.00;99.90;;;;;;5370769;26;20008;-63
2024/04/16 06:23:39;;;;;;;18.77;3.13;;;7.10;99.90;;;;;;5368400;26;20087;-62
2024/04/16 06:26:10;;;;;;;12.18;2.72;;;7.10;99.90;;;;;;5371422;26;20027;-62
2024/04/16 06:28:37;;;;;;;13.73;2.08;;;7.10;99.90;;;;;;5365435;26;20077;-62
2024/04/16 06:31:04;;;;;;;16.27;2.20;;;7.10;99.90;;;;;;5370293;26;20375;-63
2024/04/16 06:33:33;;;;;;;9.65;2.20;;;7.20;99.90;;;;;;5371885;26;20324;-62
2024/04/16 06:36:00;;;;;;;14.48;2.78;;;7.00;99.90;;;;;;5369423;26;20325;-63
2024/04/16 06:38:26;;;;;;;5.60;2.05;;;6.90;99.90;;;;;;5370423;26;20004;-63
2024/04/16 06:40:54;;;;;;;5.45;1.77;;;7.00;99.90;;;;;;5374599;26;20004;-63
2024/04/16 06:43:20;;;;;;;10.70;2.20;;;7.00;99.90;;;;;;5361859;26;20316;-63
2024/04/16 06:45:47;;;;;;;13.30;1.85;;;7.10;99.90;;;;;;5370108;26;20044;-63
2024/04/16 06:48:14;;;;;;;15.95;2.65;;;7.00;99.90;;;;;;5369003;26;20004;-62
2024/04/16 06:50:45;;;;;;;10.48;2.00;;;7.10;99.90;;;;;;5370019;26;20002;-63
2024/04/16 06:53:12;;;;;;;12.32;2.38;;;7.00;99.90;;;;;;5371541;26;20004;-62
2024/04/16 06:55:39;;;;;;;9.25;1.90;;;6.90;99.90;;;;;;5359029;26;20019;-63
2024/04/16 06:58:07;;;;;;;11.82;1.83;;;7.10;99.90;;;;;;5363471;26;20078;-62
2024/04/16 07:00:34;;;;;;;10.80;1.92;;;7.30;99.90;;;;;;5365966;26;20052;-61
2024/04/16 07:03:01;;;;;;;11.85;2.08;;;7.40;99.90;;;;;;5374486;26;20072;-63
2024/04/16 07:05:29;;;;;;;7.72;2.13;;;7.50;99.90;;;;;;5365489;26;20005;-63
2024/04/16 07:07:56;;;;;;;8.57;1.85;;;7.30;99.90;;;;;;5366252;26;20000;-63
2024/04/16 07:10:23;;;;;;;8.63;2.28;;;7.60;99.90;;;;;;5371261;26;20004;-63
2024/04/16 07:12:49;;;;;;;10.38;1.88;;;7.50;99.90;;;;;;5363840;26;20000;-63
2024/04/16 07:15:16;;;;;;;10.57;1.85;;;7.50;99.90;;;;;;5361802;26;20732;-60
2024/04/16 07:17:43;;;;;;;10.02;1.85;;;7.60;99.90;;;;;;5356281;26;20013;-63
2024/04/16 07:20:10;;;;;;;10.23;1.75;;;7.50;99.90;;;;;;5369205;26;20028;-63
2024/04/16 07:22:37;;;;;;;11.77;2.28;;;7.50;99.90;;;;;;5365043;26;20004;-62
2024/04/16 07:25:04;;;;;;;8.40;1.75;;;7.70;99.90;;;;;;5369030;26;20023;-62
2024/04/16 07:27:31;;;;;;;15.77;3.47;;;7.90;99.90;;;;;;5371088;26;20019;-60
2024/04/16 07:29:58;;;;;;;8.07;2.28;;;8.10;99.90;;;;;;5339426;26;20012;-62
2024/04/16 07:32:25;;;;;;;10.38;2.00;;;8.30;99.90;;;;;;5372143;26;20073;-62
2024/04/16 07:34:52;;;;;;;13.35;2.38;;;8.00;99.90;;;;;;5360692;26;20986;-60
2024/04/16 07:37:23;;;;;;;9.48;2.10;;;7.90;99.90;;;;;;5373955;26;20016;-63
2024/04/16 07:39:50;;;;;;;8.63;2.67;;;7.70;99.90;;;;;;5369209;26;20388;-61
2024/04/16 07:42:17;;;;;;;9.23;3.08;;;7.60;99.90;;;;;;5335122;26;20000;-62
2024/04/16 07:44:44;;;;;;;14.93;2.80;;;7.50;99.90;;;;;;5369223;26;20079;-63
2024/04/16 07:47:11;;;;;;;12.43;2.13;;;7.70;99.90;;;;;;5370382;26;20349;-63
2024/04/16 07:49:38;;;;;;;15.23;1.88;;;7.90;99.90;;;;;;5371424;26;20036;-62
2024/04/16 07:52:05;;;;;;;8.07;2.50;;;7.90;99.90;;;;;;5367415;26;20461;-62
2024/04/16 07:54:32;;;;;;;15.15;2.47;;;8.10;99.90;;;;;;5368344;26;20019;-62
2024/04/16 07:56:59;;;;;;;13.93;2.28;;;7.90;99.90;;;;;;5366669;26;20015;-62
2024/04/16 07:59:26;;;;;;;6.55;1.80;;;7.70;99.90;;;;;;5365024;26;20008;-63
2024/04/16 08:01:53;;;;;;;10.23;1.88;;;7.70;99.90;;;;;;5370473;26;20077;-62
2024/04/16 08:04:20;;;;;;;9.82;1.77;;;7.80;99.90;;;;;;5367937;26;19996;-61
2024/04/16 08:06:48;;;;;;;8.18;2.13;;;8.10;99.90;;;;;;5366798;26;20032;-63
2024/04/16 08:09:15;;;;;;;6.20;1.70;;;8.20;99.90;;;;;;5366232;26;20527;-63
2024/04/16 08:11:43;;;;;;;5.20;1.77;;;8.20;99.90;;;;;;5357824;26;20001;-62
2024/04/16 08:14:11;;;;;;;7.63;1.88;;;8.60;99.90;;;;;;5364030;26;20016;-62
2024/04/16 08:16:38;;;;;;;6.57;1.95;;;8.80;99.90;;;;;;5355031;26;20333;-62
2024/04/16 08:19:05;;;;;;;9.13;2.00;;;8.50;99.90;;;;;;5365583;26;20004;-63
2024/04/16 08:21:31;;;;;;;8.20;1.90;;;8.40;99.90;;;;;;5365930;26;20060;-63
2024/04/16 08:23:58;;;;;;;15.15;2.65;;;8.70;99.90;;;;;;5362683;26;20008;-62
2024/04/16 08:26:25;;;;;;;10.52;2.00;;;8.60;99.90;;;;;;5370154;26;20009;-63
2024/04/16 08:28:52;;;;;;;10.10;1.70;;;8.50;99.90;;;;;;5374293;26;20448;-63
2024/04/16 08:31:19;;;;;;;6.70;2.10;;;8.60;99.90;;;;;;5367274;26;20004;-63
2024/04/16 08:33:46;;;;;;;9.77;1.85;;;8.60;99.90;;;;;;5339256;26;20130;-60
2024/04/16 08:36:13;;;;;;;10.45;1.67;;;8.90;99.90;;;;;;5364762;26;20015;-63
2024/04/16 08:38:40;;;;;;;7.45;2.13;;;9.10;99.90;;;;;;5370164;26;20025;-63
2024/04/16 08:41:07;;;;;;;9.80;1.70;;;8.90;99.90;;;;;;5364344;26;20019;-63
2024/04/16 08:43:37;;;;;;;4.78;1.20;;;8.50;99.90;;;;;;5363500;26;20484;-62
2024/04/16 08:46:06;;;;;;;11.90;2.00;;;8.60;99.90;;;;;;5363728;26;21964;-62
2024/04/16 08:48:37;;;;;;;12.40;1.92;;;8.50;99.90;;;;;;5363536;26;20018;-61
2024/04/16 08:51:06;;;;;;;8.70;1.60;;;8.80;99.90;;;;;;5366684;26;20008;-63
2024/04/16 08:53:35;;;;;;;9.63;1.40;;;8.60;99.90;;;;;;5368092;26;20441;-63
2024/04/16 08:56:03;;;;;;;10.77;1.63;;;8.60;99.90;;;;;;5370919;26;20571;-61
2024/04/16 08:58:30;;;;;;;7.03;1.40;;;8.60;99.90;;;;;;5370563;26;19997;-62
2024/04/16 09:00:58;;;;;;;3.65;1.58;;;8.80;99.90;;;;;;5372313;26;20004;-62
2024/04/16 09:03:27;;;;;;;5.07;1.83;;;8.60;99.90;;;;;;5373446;26;20476;-63
2024/04/16 09:05:53;;;;;;;4.30;1.23;;;8.70;99.90;;;;;;5366304;26;20077;-62
2024/04/16 09:08:21;;;;;;;8.93;3.50;;;9.00;99.90;;;;;;5369795;26;20004;-63
2024/04/16 09:10:48;;;;;;;7.40;1.83;;;9.10;99.90;;;;;;5375372;26;20012;-63
2024/04/16 09:13:15;;;;;;;7.25;1.88;;;9.30;99.90;;;;;;5369759;26;20477;-61
2024/04/16 09:15:42;;;;;;;8.15;1.83;;;9.20;99.90;;;;;;5371585;26;20011;-63
2024/04/16 09:18:09;;;;;;;8.82;1.80;;;9.50;99.90;;;;;;5360302;26;20001;-62
2024/04/16 09:20:36;;;;;;;10.05;1.75;;;9.20;99.90;;;;;;5372599;26;20457;-62
2024/04/16 09:23:03;;;;;;;10.68;1.80;;;9.40;99.90;;;;;;5358672;26;20000;-63
2024/04/16 09:25:37;;;;;;;8.98;1.58;;;9.60;99.90;;;;;;5371700;26;22519;-63
2024/04/16 09:28:05;;;;;;;7.38;1.05;;;10.10;99.90;;;;;;5372726;26;20011;-62
2024/04/16 09:30:32;;;;;;;6.25;1.58;;;10.80;99.90;;;;;;5363145;26;20413;-63
2024/04/16 09:33:03;;;;;;;7.88;1.63;;;11.10;99.90;;;;;;5358864;26;20337;-63
2024/04/16 09:35:38;;;;;;;7.65;1.50;;;11.00;99.90;;;;;;5365479;26;20107;-63
2024/04/16 09:38:07;;;;;;;5.10;1.30;;;11.30;99.90;;;;;;5373559;26;20039;-63
2024/04/16 09:40:35;;;;;;;6.65;1.60;;;11.30;99.90;;;;;;5365300;26;20016;-64
2024/04/16 09:43:04;;;;;;;5.65;1.40;;;11.10;99.90;;;;;;5371798;26;20008;-63
2024/04/16 09:45:34;;;;;;;11.50;2.17;;;10.80;99.90;;;;;;5369253;26;20011;-63
2024/04/16 09:48:02;;;;;;;6.35;1.25;;;10.70;99.90;;;;;;5343000;26;20004;-63
2024/04/16 09:50:30;;;;;;;6.93;1.70;;;10.30;99.90;;;;;;5370066;26;20001;-62
2024/04/16 09:53:19;;;;;;;10.52;1.85;;;10.00;99.90;;;;;;5367104;26;20016;-63
2024/04/16 09:55:48;;;;;;;5.70;1.70;;;9.90;99.90;;;;;;5366974;26;20012;-63
2024/04/16 09:58:17;;;;;;;6.57;1.48;;;10.20;99.90;;;;;;5359254;26;20015;-63
2024/04/16 10:00:46;;;;;;;11.93;1.70;;;10.50;99.90;;;;;;5365793;26;20012;-62
2024/04/16 10:03:15;;;;;;;5.78;1.38;;;10.90;99.90;;;;;;5371556;26;20036;-63
2024/04/16 10:05:41;;;;;;;5.50;1.42;;;11.20;99.90;;;;;;5367026;26;20012;-63
2024/04/16 10:08:08;;;;;;;8.55;1.33;;;11.50;99.90;;;;;;5370181;26;20001;-62
2024/04/16 10:10:39;;;;;;;8.18;1.30;;;11.60;99.90;;;;;;5367689;26;20317;-61
2024/04/16 10:13:06;;;;;;;7.82;1.65;;;11.70;99.90;;;;;;5370168;26;20015;-62
2024/04/16 10:15:33;;;;;;;8.90;1.50;;;11.70;99.90;;;;;;5365117;26;20012;-63
2024/04/16 10:18:02;;;;;;;5.57;1.23;;;11.70;99.90;;;;;;5355695;26;20336;-62
2024/04/16 10:20:29;;;;;;;8.45;1.83;;;11.70;99.90;;;;;;5367576;26;20001;-60
2024/04/16 10:23:00;;;;;;;8.48;1.67;;;11.60;99.90;;;;;;5366053;26;20077;-62
2024/04/16 10:25:34;;;;;;;6.78;1.52;;;11.40;99.90;;;;;;5365670;26;20008;-61
2024/04/16 10:28:02;;;;;;;4.68;1.35;;;11.20;99.90;;;;;;5366067;26;20019;-63
2024/04/16 10:30:30;;;;;;;5.80;1.25;;;11.10;99.90;;;;;;5366530;26;20000;-62
2024/04/16 10:32:58;;;;;;;5.50;1.10;;;11.20;99.90;;;;;;5361999;26;20016;-63
2024/04/16 10:35:28;;;;;;;5.05;1.30;;;11.00;99.90;;;;;;5371154;26;20044;-63
2024/04/16 10:37:57;;;;;;;6.93;1.15;;;11.00;99.90;;;;;;5363350;26;20019;-61
2024/04/16 10:40:30;;;;;;;4.55;1.85;;;11.20;99.90;;;;;;5360017;26;20084;-63
2024/04/16 10:42:59;;;;;;;6.95;1.38;;;11.20;99.90;;;;;;5363144;26;20001;-63
2024/04/16 10:45:28;;;;;;;5.47;1.20;;;11.30;99.90;;;;;;5371100;26;20000;-62
2024/04/16 10:47:56;;;;;;;5.82;1.40;;;11.50;99.90;;;;;;5366470;26;20016;-63
2024/04/16 10:50:22;;;;;;;5.07;1.25;;;11.70;99.90;;;;;;5371011;26;20081;-63
2024/04/16 10:52:50;;;;;;;4.25;1.35;;;12.00;99.90;;;;;;5364530;26;20470;-63
2024/04/16 10:55:17;;;;;;;6.05;1.17;;;12.70;99.90;;;;;;5375502;26;20004;-63
2024/04/16 10:57:45;;;;;;;5.80;1.42;;;13.10;99.90;;;;;;5372546;26;20000;-59
2024/04/16 11:00:13;;;;;;;6.95;1.70;;;13.20;99.90;;;;;;5363545;26;20009;-59
2024/04/16 11:02:40;;;;;;;3.78;1.13;;;13.00;99.90;;;;;;5365879;26;20079;-59
2024/04/16 11:05:07;;;;;;;5.65;1.52;;;12.60;99.90;;;;;;5370043;26;20014;-58
2024/04/16 11:07:35;;;;;;;3.60;1.35;;;12.50;99.90;;;;;;5378270;26;20443;-59
2024/04/16 11:10:03;;;;;;;6.22;1.52;;;12.40;99.90;;;;;;5369625;26;20404;-59
2024/04/16 11:12:29;;;;;;;6.22;1.45;;;12.60;99.90;;;;;;5362367;26;20000;-59
2024/04/16 11:14:57;;;;;;;6.90;1.55;;;12.80;99.90;;;;;;5363423;26;20086;-58
2024/04/16 11:17:27;;;;;;;5.57;1.38;;;13.00;99.90;;;;;;5362741;26;19996;-57
2024/04/16 11:19:55;;;;;;;5.53;1.50;;;12.80;99.90;;;;;;5364659;26;20040;-57
2024/04/16 11:22:23;;;;;;;8.25;1.50;;;12.60;99.90;;;;;;5365839;26;20015;-57
2024/04/16 11:24:50;;;;;;;9.30;1.33;;;12.80;99.90;;;;;;5368261;26;20005;-57
2024/04/16 11:27:19;;;;;;;10.90;1.63;;;12.80;99.90;;;;;;5370636;26;20536;-56
2024/04/16 11:29:49;;;;;;;4.65;1.33;;;12.50;99.90;;;;;;5357106;26;20459;-58
2024/04/16 11:32:17;;;;;;;4.03;1.20;;;12.40;99.90;;;;;;5362962;26;20008;-58
2024/04/16 11:34:44;;;;;;;8.95;1.45;;;12.00;99.90;;;;;;5362917;26;20234;-57
2024/04/16 11:37:13;;;;;;;4.68;1.08;;;11.50;99.90;;;;;;5359910;26;20008;-58
2024/04/16 11:39:42;;;;;;;5.50;1.30;;;11.60;99.90;;;;;;5361649;26;20032;-58
2024/04/16 11:42:10;;;;;;;4.63;1.20;;;11.90;99.90;;;;;;5362916;26;20746;-57
2024/04/16 11:44:38;;;;;;;5.43;1.73;;;11.90;99.90;;;;;;5373167;26;20058;-58
2024/04/16 11:47:06;;;;;;;7.20;1.30;;;12.00;99.90;;;;;;5362213;26;19996;-58
2024/04/16 11:49:33;;;;;;;4.05;1.40;;;11.90;99.90;;;;;;5360587;26;20001;-58
2024/04/16 11:52:04;;;;;;;5.25;1.15;;;11.80;99.90;;;;;;5352484;26;20001;-57
2024/04/16 11:54:36;;;;;;;4.93;1.30;;;11.50;99.90;;;;;;5360684;21;20349;-56
2024/04/16 11:57:04;;;;;;;8.85;1.58;;;11.20;99.90;;;;;;5334472;26;20019;-57
2024/04/16 11:59:32;;;;;;;9.65;1.67;;;11.00;99.90;;;;;;5337635;26;20069;-59
2024/04/16 12:01:59;;;;;;;5.57;2.05;;;10.80;99.90;;;;;;5338472;26;20016;-63
2024/04/16 12:04:26;;;;;;;3.97;1.10;;;10.90;99.90;;;;;;5335485;26;20029;-60
2024/04/16 12:06:54;;;;;;;7.35;1.15;;;11.20;99.90;;;;;;5334937;26;20045;-59
2024/04/16 12:09:21;;;;;;;7.22;1.30;;;11.20;99.90;;;;;;5335346;26;20617;-60
2024/04/16 12:11:48;;;;;;;5.78;1.40;;;10.90;99.90;;;;;;5349078;21;20016;-63
2024/04/16 12:14:15;;;;;;;4.68;1.58;;;11.20;99.90;;;;;;5336756;26;20111;-62
2024/04/16 12:16:42;;;;;;;10.00;1.65;;;11.30;99.90;;;;;;5328384;26;20005;-64
2024/04/16 12:19:10;;;;;;;6.18;1.10;;;11.30;99.90;;;;;;5337463;26;20434;-62
2024/04/16 12:21:37;;;;;;;3.15;0.95;;;11.40;99.90;;;;;;5337268;26;20056;-62
2024/04/16 12:24:04;;;;;;;4.28;1.05;;;11.00;99.90;;;;;;5333875;26;20075;-63
2024/04/16 12:26:31;;;;;;;4.55;1.20;;;10.80;99.90;;;;;;5333265;26;20091;-62
2024/04/16 12:28:58;;;;;;;3.13;1.00;;;10.60;99.90;;;;;;5327011;26;20477;-63
2024/04/16 12:31:26;;;;;;;4.85;1.02;;;10.70;99.90;;;;;;5331798;26;20005;-58
2024/04/16 12:33:53;;;;;;;4.68;1.33;;;10.90;99.90;;;;;;5333267;26;20469;-60
2024/04/16 12:36:21;;;;;;;4.95;1.20;;;11.00;99.90;;;;;;5335112;26;20081;-59
2024/04/16 12:38:48;;;;;;;4.85;1.10;;;11.00;99.90;;;;;;5334725;26;20059;-59
2024/04/16 12:41:15;;;;;;;4.60;1.05;;;11.20;99.90;;;;;;5336017;26;20009;-59
2024/04/16 12:43:42;;;;;;;2.60;1.10;;;11.30;99.90;;;;;;5336850;26;20004;-62
2024/04/16 12:46:09;;;;;;;2.40;0.93;;;11.20;99.90;;;;;;5331018;26;20487;-62
2024/04/16 12:48:36;;;;;;;4.68;0.98;;;11.10;99.90;;;;;;5336288;26;20002;-62
2024/04/16 12:51:03;;;;;;;2.47;0.85;;;11.00;99.90;;;;;;5334429;26;20052;-61